createdAt,value
2023-02-01T00:00:32.378Z,27.56
2023-02-01T00:01:32.438Z,27.97
2023-02-01T00:02:32.538Z,28.96
2023-02-01T00:03:32.620Z,28.65
2023-02-01T00:04:32.671Z,30.90
2023-02-01T00:05:32.760Z,28.06
2023-02-01T00:06:32.829Z,31.20
2023-02-01T00:07:32.909Z,29.86
2023-02-01T00:08:32.988Z,26.73
2023-02-01T00:09:33.071Z,27.34
2023-02-01T00:10:33.137Z,27.80
2023-02-01T00:11:33.221Z,27.10
2023-02-01T00:12:33.305Z,30.73
2023-02-01T00:13:33.378Z,27.58
2023-02-01T00:14:33.442Z,29.33
2023-02-01T00:15:33.543Z,27.33
2023-02-01T00:16:33.586Z,26.18
2023-02-01T00:17:33.655Z,27.95
2023-02-01T00:18:33.753Z,27.66
2023-02-01T00:19:33.809Z,28.81
2023-02-01T00:20:33.903Z,28.76
2023-02-01T00:21:33.985Z,28.18
2023-02-01T00:22:34.051Z,30.90
2023-02-01T00:23:34.142Z,30.24
2023-02-01T00:24:34.254Z,27.55
2023-02-01T00:25:34.312Z,27.62
2023-02-01T00:26:34.451Z,29.75
2023-02-01T00:27:34.505Z,29.82
2023-02-01T00:28:34.576Z,28.57
2023-02-01T00:29:34.656Z,27.62
2023-02-01T00:30:34.765Z,26.87
2023-02-01T00:31:34.996Z,26.67
2023-02-01T00:32:34.892Z,29.71
2023-02-01T00:33:35.005Z,27.02
2023-02-01T00:34:35.062Z,33.20
2023-02-01T00:35:35.144Z,30.76
2023-02-01T00:36:35.214Z,28.72
2023-02-01T00:37:35.302Z,31.87
2023-02-01T00:38:35.394Z,29.76
2023-02-01T00:39:35.495Z,29.78
2023-02-01T00:40:35.573Z,29.22
2023-02-01T00:41:35.663Z,29.52
2023-02-01T00:42:35.754Z,30.38
2023-02-01T00:43:35.809Z,32.58
2023-02-01T00:44:35.887Z,32.74
2023-02-01T00:45:35.986Z,28.28
2023-02-01T00:46:36.278Z,29.83
2023-02-01T00:47:36.143Z,28.30
2023-02-01T00:48:36.255Z,27.26
2023-02-01T00:49:36.324Z,28.42
2023-02-01T00:50:36.405Z,26.15
2023-02-01T00:51:36.497Z,26.81
2023-02-01T00:52:36.583Z,28.23
2023-02-01T00:53:36.653Z,29.47
2023-02-01T00:54:36.766Z,30.11
2023-02-01T00:55:36.820Z,28.55
2023-02-01T00:56:36.887Z,29.55
2023-02-01T00:57:36.976Z,27.35
2023-02-01T00:58:37.050Z,26.84
2023-02-01T00:59:37.134Z,30.17
2023-02-01T01:00:37.265Z,27.85
2023-02-01T01:01:37.418Z,31.38
2023-02-01T01:02:37.404Z,26.42
2023-02-01T01:03:37.468Z,31.90
2023-02-01T01:04:37.547Z,30.85
2023-02-01T01:05:37.634Z,30.41
2023-02-01T01:06:37.720Z,30.20
2023-02-01T01:07:37.794Z,31.46
2023-02-01T01:08:37.885Z,31.36
2023-02-01T01:09:37.942Z,30.93
2023-02-01T01:10:38.042Z,31.15
2023-02-01T01:11:38.115Z,31.71
2023-02-01T01:12:38.192Z,31.74
2023-02-01T01:13:38.269Z,29.72
2023-02-01T01:14:38.325Z,30.75
2023-02-01T01:15:38.411Z,30.92
2023-02-01T01:16:38.532Z,28.72
2023-02-01T01:17:38.565Z,29.63
2023-02-01T01:18:38.656Z,29.37
2023-02-01T01:19:38.738Z,30.93
2023-02-01T01:20:38.829Z,31.98
2023-02-01T01:21:38.906Z,30.56
2023-02-01T01:22:38.975Z,28.56
2023-02-01T01:23:39.076Z,30.10
2023-02-01T01:24:39.125Z,29.54
2023-02-01T01:25:39.224Z,28.87
2023-02-01T01:26:39.368Z,30.22
2023-02-01T01:27:39.398Z,30.29
2023-02-01T01:28:39.480Z,29.18
2023-02-01T01:29:39.570Z,30.23
2023-02-01T01:30:39.676Z,30.25
2023-02-01T01:31:39.790Z,27.23
2023-02-01T01:32:39.792Z,33.21
2023-02-01T01:33:39.875Z,29.89
2023-02-01T01:34:39.949Z,28.92
2023-02-01T01:35:40.039Z,29.10
2023-02-01T01:36:40.137Z,30.18
2023-02-01T01:37:40.211Z,30.02
2023-02-01T01:38:40.302Z,30.94
2023-02-01T01:39:40.379Z,29.49
2023-02-01T01:40:40.465Z,32.92
2023-02-01T01:41:40.560Z,31.61
2023-02-01T01:42:40.645Z,28.64
2023-02-01T01:43:40.712Z,31.78
2023-02-01T01:44:40.775Z,29.95
2023-02-01T01:45:40.857Z,30.08
2023-02-01T01:46:40.970Z,29.91
2023-02-01T01:47:41.006Z,28.89
2023-02-01T01:48:41.091Z,30.71
2023-02-01T01:49:41.198Z,29.23
2023-02-01T01:50:41.267Z,28.81
2023-02-01T01:51:41.357Z,31.68
2023-02-01T01:52:41.447Z,29.21
2023-02-01T01:53:41.523Z,28.30
2023-02-01T01:54:41.635Z,29.87
2023-02-01T01:55:41.701Z,31.32
2023-02-01T01:56:41.800Z,31.05
2023-02-01T01:57:41.874Z,29.38
2023-02-01T01:58:41.950Z,26.40
2023-02-01T01:59:42.045Z,27.43
2023-02-01T02:00:42.197Z,29.52
2023-02-01T02:01:42.275Z,31.15
2023-02-01T02:02:42.313Z,30.91
2023-02-01T02:03:42.390Z,28.73
2023-02-01T02:04:42.483Z,27.15
2023-02-01T02:05:42.563Z,30.45
2023-02-01T02:06:42.646Z,29.79
2023-02-01T02:07:42.737Z,29.61
2023-02-01T02:08:42.856Z,29.86
2023-02-01T02:09:48.175Z,32.59
2023-02-01T02:10:43.947Z,32.82
2023-02-01T02:11:42.951Z,32.68
2023-02-01T02:12:42.975Z,33.17
2023-02-01T02:13:42.994Z,31.10
2023-02-01T02:14:43.020Z,31.20
2023-02-01T02:15:43.032Z,27.88
2023-02-01T02:16:43.119Z,32.36
2023-02-01T02:17:43.078Z,33.13
2023-02-01T02:18:43.115Z,29.97
2023-02-01T02:19:43.201Z,30.80
2023-02-01T02:20:43.304Z,32.51
2023-02-01T02:21:43.374Z,32.15
2023-02-01T02:22:43.459Z,27.28
2023-02-01T02:23:43.540Z,30.10
2023-02-01T02:24:43.617Z,31.35
2023-02-01T02:25:43.699Z,31.93
2023-02-01T02:26:43.819Z,30.89
2023-02-01T02:27:43.873Z,31.12
2023-02-01T02:28:43.951Z,33.29
2023-02-01T02:29:44.033Z,32.48
2023-02-01T02:30:44.112Z,30.85
2023-02-01T02:31:44.254Z,31.60
2023-02-01T02:32:44.277Z,28.12
2023-02-01T02:33:44.360Z,27.73
2023-02-01T02:34:44.445Z,28.36
2023-02-01T02:35:44.532Z,31.01
2023-02-01T02:36:44.623Z,28.58
2023-02-01T02:37:44.714Z,30.87
2023-02-01T02:38:44.779Z,31.03
2023-02-01T02:39:44.859Z,30.28
2023-02-01T02:40:44.943Z,29.02
2023-02-01T02:41:45.028Z,28.10
2023-02-01T02:42:45.111Z,31.49
2023-02-01T02:43:45.158Z,27.56
2023-02-01T02:44:45.254Z,30.47
2023-02-01T02:45:45.414Z,32.93
2023-02-01T02:46:45.430Z,28.66
2023-02-01T02:47:45.508Z,29.70
2023-02-01T02:48:45.606Z,29.72
2023-02-01T02:49:45.678Z,29.05
2023-02-01T02:50:45.755Z,29.14
2023-02-01T02:51:45.839Z,30.19
2023-02-01T02:52:45.941Z,29.10
2023-02-01T02:53:46.021Z,29.70
2023-02-01T02:54:46.104Z,29.80
2023-02-01T02:55:46.187Z,29.49
2023-02-01T02:56:46.276Z,28.55
2023-02-01T02:57:46.373Z,29.53
2023-02-01T02:58:46.446Z,29.98
2023-02-01T02:59:46.525Z,30.34
2023-02-01T03:00:46.631Z,28.64
2023-02-01T03:01:46.666Z,28.71
2023-02-01T03:02:46.796Z,31.14
2023-02-01T03:03:46.841Z,28.09
2023-02-01T03:04:46.941Z,29.48
2023-02-01T03:05:47.015Z,29.57
2023-02-01T03:06:47.111Z,26.71
2023-02-01T03:07:47.178Z,27.66
2023-02-01T03:08:47.258Z,26.63
2023-02-01T03:09:47.338Z,30.90
2023-02-01T03:10:47.400Z,31.93
2023-02-01T03:11:47.476Z,31.07
2023-02-01T03:12:47.563Z,30.57
2023-02-01T03:13:47.633Z,30.49
2023-02-01T03:14:47.739Z,31.03
2023-02-01T03:15:47.806Z,32.65
2023-02-01T03:16:47.971Z,33.23
2023-02-01T03:17:48.001Z,31.00
2023-02-01T03:18:48.083Z,27.84
2023-02-01T03:19:48.171Z,31.26
2023-02-01T03:20:48.259Z,28.99
2023-02-01T03:21:48.331Z,30.57
2023-02-01T03:22:48.400Z,28.36
2023-02-01T03:24:48.575Z,30.38
2023-02-01T04:10:52.385Z,33.55
2023-02-01T04:11:52.465Z,32.49
2023-02-01T04:12:52.540Z,33.17
2023-02-01T04:13:52.611Z,32.74
2023-02-01T04:14:52.704Z,36.68
2023-02-01T04:15:52.765Z,31.99
2023-02-01T04:16:53.843Z,34.66
2023-02-01T04:17:52.925Z,32.42
2023-02-01T04:18:52.991Z,35.91
2023-02-01T04:19:55.232Z,32.22
2023-02-01T04:20:53.151Z,33.59
2023-02-01T04:21:53.216Z,33.56
2023-02-01T04:22:53.289Z,32.63
2023-02-01T04:27:53.447Z,34.58
2023-02-01T05:58:58.019Z,25.05
2023-02-01T08:16:04.325Z,173.67
2023-02-01T08:27:03.608Z,167.49
2023-02-01T08:28:03.657Z,162.81
2023-02-01T08:29:03.731Z,160.36
2023-02-01T08:30:03.779Z,166.16
2023-02-01T08:31:03.875Z,156.10
2023-02-01T08:32:03.955Z,159.42
2023-02-01T08:33:03.987Z,161.00
2023-02-01T08:34:03.993Z,158.89
2023-02-01T08:35:04.034Z,159.53
2023-02-01T08:36:04.045Z,156.24
2023-02-01T08:37:04.090Z,158.58
2023-02-01T08:38:04.142Z,155.77
2023-02-01T08:39:04.194Z,156.32
2023-02-01T08:40:04.237Z,154.26
2023-02-01T08:41:04.250Z,153.31
2023-02-01T08:42:04.269Z,156.20
2023-02-01T08:43:04.302Z,153.71
2023-02-01T08:44:04.322Z,149.47
2023-02-01T08:45:04.335Z,146.75
2023-02-01T08:46:04.436Z,150.57
2023-02-01T08:47:04.386Z,148.95
2023-02-01T08:48:04.369Z,147.98
2023-02-01T08:49:04.390Z,148.37
2023-02-01T08:50:04.394Z,144.80
2023-02-01T08:51:04.438Z,144.86
2023-02-01T08:52:14.378Z,145.10
2023-02-01T08:54:04.450Z,144.49
2023-02-01T08:55:04.449Z,144.61
2023-02-01T08:56:04.482Z,140.51
2023-02-01T08:57:04.463Z,144.11
2023-02-01T08:58:04.502Z,142.30
2023-02-01T08:59:04.503Z,140.51
2023-02-01T09:00:04.487Z,137.45
2023-02-01T09:01:04.599Z,139.89
2023-02-01T09:02:04.516Z,138.38
2023-02-01T09:03:04.511Z,139.58
2023-02-01T09:04:04.614Z,138.79
2023-02-01T09:05:04.518Z,135.79
2023-02-01T09:06:04.546Z,135.20
2023-02-01T09:07:04.545Z,133.87
2023-02-01T09:08:04.551Z,136.20
2023-02-01T09:09:04.578Z,132.56
2023-02-01T09:10:04.578Z,132.56
2023-02-01T09:11:04.576Z,130.66
2023-02-01T09:12:04.572Z,127.75
2023-02-01T09:13:04.585Z,132.23
2023-02-01T09:14:04.585Z,127.10
2023-02-01T09:15:04.630Z,116.82
2023-02-01T09:16:04.665Z,123.29
2023-02-01T09:17:04.608Z,121.25
2023-02-01T09:18:04.716Z,123.68
2023-02-01T09:19:27.299Z,117.18
2023-02-01T09:20:05.684Z,117.74
2023-02-01T09:21:04.707Z,119.03
2023-02-01T09:22:04.705Z,118.97
2023-02-01T09:23:04.685Z,122.25
2023-02-01T09:24:04.697Z,119.88
2023-02-01T09:25:04.717Z,123.70
2023-02-01T09:26:04.683Z,129.02
2023-02-01T09:27:04.749Z,124.37
2023-02-01T09:28:04.670Z,120.02
2023-02-01T09:30:04.754Z,127.67
2023-02-01T09:31:04.928Z,127.54
2023-02-01T09:32:05.129Z,130.91
2023-02-01T09:33:04.887Z,131.86
2023-02-01T09:34:04.928Z,132.53
2023-02-01T09:35:04.962Z,132.49
2023-02-01T09:36:05.007Z,137.98
2023-02-01T09:37:05.042Z,141.03
2023-02-01T09:38:05.068Z,138.88
2023-02-01T09:39:05.104Z,140.91
2023-02-01T09:40:05.139Z,143.80
2023-02-01T09:41:05.182Z,142.01
2023-02-01T09:42:05.189Z,148.06
2023-02-01T09:43:05.210Z,149.76
2023-02-01T09:44:05.230Z,149.40
2023-02-01T09:45:05.269Z,146.35
2023-02-01T09:58:05.425Z,167.61
2023-02-01T09:59:05.433Z,170.26
2023-02-01T10:00:05.440Z,170.51
2023-02-01T10:01:05.511Z,172.71
2023-02-01T10:02:05.442Z,174.71
2023-02-01T10:03:05.450Z,177.02
2023-02-01T10:05:05.467Z,174.67
2023-02-01T10:06:05.482Z,179.50
2023-02-01T10:07:05.469Z,184.46
2023-02-01T10:08:05.454Z,182.86
2023-02-01T10:09:05.511Z,185.94
2023-02-01T10:11:05.533Z,186.56
2023-02-01T10:12:05.575Z,190.35
2023-02-01T10:13:05.627Z,191.54
2023-02-01T10:24:16.852Z,203.37
2023-02-01T13:42:13.614Z,28.27
2023-02-01T13:43:13.644Z,26.07
2023-02-01T13:44:13.695Z,26.85
2023-02-01T13:45:13.729Z,29.77
2023-02-01T13:46:13.791Z,27.46
2023-02-01T13:47:13.796Z,26.76
2023-02-01T13:48:13.850Z,31.28
2023-02-01T13:50:13.918Z,28.47
2023-02-01T13:51:13.928Z,29.05
2023-02-01T13:52:13.936Z,27.23
2023-02-01T13:53:15.532Z,29.87
2023-02-01T13:54:13.935Z,29.10
2023-02-01T13:55:13.942Z,25.56
2023-02-01T13:56:13.940Z,25.93
2023-02-01T13:57:13.940Z,26.40
2023-02-01T13:58:13.942Z,31.13
2023-02-01T13:59:15.561Z,28.37
2023-02-01T14:00:13.945Z,28.51
2023-02-01T14:01:13.977Z,29.20
2023-02-01T14:02:13.950Z,28.78
2023-02-01T14:03:13.946Z,30.31
2023-02-01T14:04:14.020Z,31.93
2023-02-01T14:05:13.977Z,28.32
2023-02-01T14:06:13.961Z,27.66
2023-02-01T14:07:13.991Z,30.35
2023-02-01T14:08:14.008Z,26.51
2023-02-01T14:09:15.172Z,27.52
2023-02-01T14:10:14.021Z,28.38
2023-02-01T14:11:14.076Z,28.28
2023-02-01T14:12:14.090Z,27.12
2023-02-01T14:13:14.122Z,30.21
2023-02-01T14:14:14.166Z,27.70
2023-02-01T14:15:14.172Z,28.11
2023-02-01T14:16:14.314Z,26.30
2023-02-01T14:17:14.267Z,27.82
2023-02-01T14:18:14.304Z,29.73
2023-02-01T14:19:14.329Z,29.11
2023-02-01T14:20:14.329Z,31.17
2023-02-01T14:21:22.255Z,31.88
2023-02-01T14:22:15.355Z,32.05
2023-02-01T14:23:14.352Z,32.20
2023-02-01T14:24:14.362Z,30.48
2023-02-01T14:25:14.389Z,28.83
2023-02-01T14:26:14.385Z,28.26
2023-02-01T14:27:16.710Z,28.57
2023-02-01T14:28:14.378Z,29.73
2023-02-01T14:29:20.254Z,29.36
2023-02-01T14:30:15.400Z,29.70
2023-02-01T14:31:14.436Z,30.26
2023-02-01T14:32:14.388Z,29.90
2023-02-01T14:33:16.160Z,30.00
2023-02-01T14:34:14.405Z,29.49
2023-02-01T14:35:14.402Z,26.87
2023-02-01T14:36:14.406Z,27.12
2023-02-01T14:37:14.425Z,28.46
2023-02-01T14:38:14.427Z,30.25
2023-02-01T14:39:14.440Z,28.97
2023-02-01T14:40:14.454Z,28.90
2023-02-01T14:41:14.458Z,26.21
2023-02-01T14:42:14.492Z,29.03
2023-02-01T14:43:23.320Z,27.16
2023-02-01T14:44:15.503Z,27.44
2023-02-01T14:45:14.501Z,28.26
2023-02-01T14:46:14.547Z,29.13
2023-02-01T14:47:14.528Z,29.65
2023-02-01T14:48:14.538Z,29.83
2023-02-01T14:49:14.546Z,30.93
2023-02-01T14:50:14.546Z,30.82
2023-02-01T14:51:14.553Z,26.52
2023-02-01T14:52:14.562Z,29.34
2023-02-01T14:53:14.569Z,28.28
2023-02-01T14:54:14.568Z,30.16
2023-02-01T14:55:14.583Z,32.20
2023-02-01T14:56:14.576Z,30.05
2023-02-01T14:57:14.602Z,30.45
2023-02-01T14:58:14.600Z,25.11
2023-02-01T14:59:14.609Z,29.84
2023-02-01T15:00:14.626Z,32.05
2023-02-01T15:01:14.685Z,30.67
2023-02-01T15:02:14.650Z,26.94
2023-02-01T15:03:14.662Z,27.59
2023-02-01T15:04:14.668Z,29.23
2023-02-01T15:05:14.654Z,28.68
2023-02-01T15:06:14.670Z,29.57
2023-02-01T15:07:14.692Z,28.25
2023-02-01T15:08:14.681Z,28.58
2023-02-01T15:09:14.713Z,29.56
2023-02-01T15:10:14.702Z,26.46
2023-02-01T15:11:14.712Z,29.36
2023-02-01T15:12:14.739Z,30.25
2023-02-01T15:13:14.743Z,29.47
2023-02-01T15:14:14.759Z,28.09
2023-02-01T15:15:14.804Z,25.58
2023-02-01T15:16:15.023Z,31.09
2023-02-01T15:17:14.850Z,28.53
2023-02-01T15:18:14.879Z,28.67
2023-02-01T15:19:14.908Z,31.83
2023-02-01T15:20:14.932Z,29.25
2023-02-01T15:21:28.399Z,32.06
2023-02-01T15:23:14.976Z,26.73
2023-02-01T15:24:14.985Z,26.95
2023-02-01T15:25:15.015Z,28.14
2023-02-01T15:26:15.041Z,26.99
2023-02-01T15:27:15.028Z,26.62
2023-02-01T15:28:15.029Z,25.00
2023-02-01T15:29:15.043Z,26.96
2023-02-01T15:30:15.050Z,28.96
2023-02-01T15:31:15.372Z,31.44
2023-02-01T15:32:15.113Z,28.36
2023-02-01T15:33:15.057Z,30.54
2023-02-01T15:34:15.083Z,32.23
2023-02-01T15:35:15.082Z,29.51
2023-02-01T15:36:15.096Z,29.67
2023-02-01T15:37:15.080Z,30.41
2023-02-01T15:38:15.113Z,32.11
2023-02-01T15:39:15.121Z,31.66
2023-02-01T15:40:15.121Z,29.23
2023-02-01T15:41:15.132Z,30.38
2023-02-01T15:42:15.133Z,33.81
2023-02-01T15:43:15.137Z,32.42
2023-02-01T15:44:15.179Z,31.25
2023-02-01T15:55:15.655Z,27.50
2023-02-01T18:22:23.661Z,29.60
2023-02-01T18:23:23.726Z,30.94
2023-02-01T18:24:23.803Z,29.78
2023-02-01T18:25:24.133Z,29.15
2023-02-01T18:26:23.947Z,26.70
2023-02-01T18:27:24.020Z,30.03
2023-02-01T20:00:29.518Z,29.19
2023-02-01T20:01:29.625Z,32.00
2023-02-01T20:02:29.674Z,33.67
2023-02-01T20:03:29.735Z,31.84
2023-02-01T20:04:29.826Z,30.58
2023-02-01T20:05:29.883Z,30.29
2023-02-01T20:06:29.955Z,31.69
2023-02-01T20:07:30.036Z,28.77
2023-02-01T20:08:30.098Z,26.98
2023-02-01T20:09:30.759Z,30.09
2023-02-01T20:10:30.253Z,28.44
2023-02-01T20:11:30.324Z,26.20
2023-02-01T20:12:30.380Z,30.82
2023-02-01T20:13:30.458Z,26.12
2023-02-01T20:14:30.518Z,28.59
2023-02-01T20:15:30.603Z,27.23
2023-02-01T20:16:30.730Z,30.13
2023-02-01T20:17:30.740Z,27.69
2023-02-01T20:18:30.821Z,29.24
2023-02-01T20:19:30.890Z,28.38
2023-02-01T20:20:30.962Z,29.02
2023-02-01T20:21:31.046Z,30.66
2023-02-01T20:22:31.102Z,28.24
2023-02-01T20:23:31.190Z,27.50
2023-02-01T20:24:31.248Z,29.72
2023-02-01T20:25:32.191Z,28.97
2023-02-01T20:26:32.279Z,30.27
2023-02-01T20:27:32.342Z,25.64
2023-02-01T20:28:32.406Z,28.76
2023-02-01T20:29:32.503Z,31.05
2023-02-01T20:30:32.629Z,28.54
2023-02-01T20:31:32.652Z,29.17
2023-02-01T20:32:32.706Z,27.33
2023-02-01T20:33:32.785Z,27.06
2023-02-01T20:34:32.866Z,29.70
2023-02-01T20:35:32.959Z,30.97
2023-02-01T20:36:33.014Z,30.51
2023-02-01T20:37:33.074Z,29.47
2023-02-01T20:38:33.156Z,32.59
2023-02-01T20:39:33.229Z,31.37
2023-02-01T20:40:33.307Z,28.08
2023-02-01T20:41:33.406Z,33.24
2023-02-01T20:42:33.464Z,28.26
2023-02-01T20:43:33.546Z,29.73
2023-02-01T20:44:33.626Z,32.13
2023-02-01T20:45:33.684Z,30.34
2023-02-01T20:46:33.810Z,29.38
2023-02-01T20:47:33.892Z,27.51
2023-02-01T20:48:33.917Z,31.36
2023-02-01T20:49:34.005Z,30.24
2023-02-01T20:50:34.079Z,30.42
2023-02-01T20:51:34.149Z,28.62
2023-02-01T20:52:34.217Z,27.85
2023-02-01T20:53:34.282Z,29.06
2023-02-01T20:54:34.354Z,34.08
2023-02-01T20:55:34.467Z,28.93
2023-02-01T20:56:34.534Z,28.26
2023-02-01T20:57:34.594Z,30.58
2023-02-01T20:58:34.651Z,31.99
2023-02-01T20:59:34.734Z,33.69
2023-02-01T21:00:34.872Z,30.62
2023-02-01T21:01:34.880Z,31.50
2023-02-01T21:02:34.962Z,32.52
2023-02-01T21:03:35.027Z,35.23
2023-02-01T21:04:35.096Z,30.92
2023-02-01T21:05:35.207Z,32.66
2023-02-01T21:06:35.256Z,32.53
2023-02-01T21:07:35.313Z,30.15
2023-02-01T21:08:35.380Z,29.79
2023-02-01T21:09:35.460Z,33.84
2023-02-01T21:10:35.528Z,29.69
2023-02-01T21:11:35.609Z,33.00
2023-02-01T21:12:35.680Z,30.59
2023-02-01T21:13:35.767Z,29.61
2023-02-01T21:14:35.847Z,31.42
2023-02-01T21:15:35.888Z,31.76
2023-02-01T21:16:35.958Z,30.66
2023-02-01T21:17:36.009Z,27.04
2023-02-01T21:18:36.103Z,29.09
2023-02-01T21:19:36.163Z,29.19
2023-02-01T21:20:36.237Z,32.24
2023-02-01T21:21:36.313Z,31.61
2023-02-01T21:22:36.388Z,32.40
2023-02-01T21:23:36.475Z,31.31
2023-02-01T21:24:36.526Z,30.01
2023-02-01T21:25:36.600Z,28.73
2023-02-01T21:26:36.699Z,29.35
2023-02-01T21:27:36.774Z,32.23
2023-02-01T21:28:36.858Z,30.92
2023-02-01T21:29:36.925Z,28.61
2023-02-01T21:30:37.022Z,29.46
2023-02-01T21:31:37.100Z,31.71
2023-02-01T21:32:37.149Z,28.82
2023-02-01T21:33:37.208Z,34.17
2023-02-01T21:34:37.273Z,29.62
2023-02-01T21:35:37.355Z,31.37
2023-02-01T21:36:37.440Z,30.33
2023-02-01T21:37:37.512Z,29.25
2023-02-01T21:38:37.567Z,31.42
2023-02-01T21:39:37.660Z,30.47
2023-02-01T21:40:37.723Z,28.03
2023-02-01T21:41:37.779Z,26.66
2023-02-01T21:42:37.864Z,29.57
2023-02-01T21:43:37.934Z,30.13
2023-02-01T21:44:37.999Z,28.41
2023-02-01T21:45:39.832Z,29.77
2023-02-01T21:49:38.147Z,30.29
2023-02-01T22:14:39.804Z,31.43
2023-02-01T22:28:40.880Z,30.90
2023-02-01T23:14:44.487Z,28.13
2023-02-01T23:15:44.607Z,31.79
2023-02-01T23:16:44.645Z,33.03
2023-02-01T23:17:44.722Z,28.26
2023-02-01T23:18:44.800Z,29.53
2023-02-01T23:19:44.901Z,31.67
2023-02-01T23:20:44.960Z,30.29
2023-02-01T23:21:45.036Z,28.80
2023-02-01T23:22:45.094Z,30.65
2023-02-01T23:23:45.153Z,26.29
2023-02-01T23:24:45.247Z,29.91
2023-02-01T23:25:45.318Z,29.26
2023-02-01T23:26:45.460Z,29.78
2023-02-01T23:27:45.491Z,29.87
2023-02-01T23:28:45.577Z,30.72
2023-02-01T23:29:45.623Z,30.72
2023-02-01T23:30:45.726Z,28.33
2023-02-01T23:31:45.933Z,30.06
2023-02-01T23:32:45.876Z,30.47
2023-02-01T23:33:45.942Z,31.08
2023-02-01T23:34:46.012Z,27.71
2023-02-01T23:35:46.073Z,31.02
2023-02-01T23:36:46.167Z,29.78
2023-02-01T23:37:46.254Z,30.53
2023-02-01T23:38:46.317Z,30.08
2023-02-01T23:39:46.439Z,28.65
2023-02-01T23:40:46.486Z,29.53
2023-02-01T23:41:46.571Z,30.51
2023-02-01T23:42:46.659Z,29.54
